Time;durP1;ratioP1;P1;durP2;ratioP2;P2;SDS_P1;SDS_P2;PMS_P1;PMS_P2;Temp;Humidity;BMP_temperature;BMP_pressure;BME280_temperature;BME280_humidity;BME280_pressure;Samples;Min_cycle;Max_cycle;Signal;HPM_P1;HPM_P2
2021/09/01 00:00:09;;;;;;;4.47;2.60;;;;;;;33.82;20.24;94524.88;5072217;28;20048;-45
2021/09/01 00:02:39;;;;;;;6.35;2.33;;;;;;;33.88;20.38;94523.19;5072865;28;20063;-45
2021/09/01 00:05:08;;;;;;;5.18;2.50;;;;;;;33.65;20.34;94527.69;5074285;28;20048;-45
2021/09/01 00:07:35;;;;;;;4.82;2.60;;;;;;;33.80;20.04;94527.25;5092685;28;20389;-46
2021/09/01 00:10:04;;;;;;;2.25;2.05;;;;;;;33.70;20.08;94527.16;5092520;28;20051;-46
2021/09/01 00:12:32;;;;;;;3.63;2.13;;;;;;;33.98;20.09;94532.97;5093086;28;20048;-45
2021/09/01 00:14:59;;;;;;;3.17;2.40;;;;;;;33.79;20.13;94536.59;5096050;28;20327;-45
2021/09/01 00:17:26;;;;;;;3.72;2.50;;;;;;;33.70;20.62;94539.94;5072929;28;20064;-45
2021/09/01 00:19:53;;;;;;;3.22;2.13;;;;;;;33.51;20.51;94541.63;5081505;28;20592;-45
2021/09/01 00:22:20;;;;;;;2.58;1.90;;;;;;;33.70;20.44;94540.69;5073459;28;20063;-45
2021/09/01 00:24:47;;;;;;;3.75;2.20;;;;;;;33.84;20.41;94549.66;5073170;28;20041;-48
2021/09/01 00:27:14;;;;;;;3.55;2.40;;;;;;;33.64;20.70;94547.84;5085586;28;20063;-46
2021/09/01 00:29:41;;;;;;;2.70;2.10;;;;;;;33.56;19.90;94554.63;5079835;28;20044;-45
2021/09/01 00:32:08;;;;;;;2.15;1.90;;;;;;;33.54;19.97;94564.38;5072099;28;20366;-45
2021/09/01 00:34:36;;;;;;;2.55;1.80;;;;;;;33.31;19.98;94557.22;5082807;28;20059;-45
2021/09/01 00:37:03;;;;;;;4.60;2.00;;;;;;;33.68;19.52;94564.75;5087727;28;20040;-45
2021/09/01 00:39:30;;;;;;;2.33;2.10;;;;;;;33.49;19.79;94562.22;5095270;28;20434;-47
2021/09/01 00:42:08;;;;;;;2.40;1.60;;;;;;;33.32;19.84;94564.22;5092453;28;20442;-49
2021/09/01 00:44:35;;;;;;;2.45;1.77;;;;;;;33.41;19.57;94567.06;5091622;28;20062;-45
2021/09/01 00:47:04;;;;;;;2.10;1.55;;;;;;;33.38;19.19;94571.41;5076465;28;20060;-45
2021/09/01 00:49:32;;;;;;;2.67;1.80;;;;;;;33.40;19.37;94566.31;5078567;28;20044;-45
2021/09/01 00:52:00;;;;;;;1.73;1.38;;;;;;;33.33;19.17;94565.75;5091900;28;20055;-46
2021/09/01 00:54:30;;;;;;;2.15;1.90;;;;;;;33.59;19.49;94566.59;5089703;28;20052;-45
2021/09/01 00:57:04;;;;;;;3.58;1.60;;;;;;;33.17;19.18;94568.44;5086686;28;20055;-45
2021/09/01 00:59:37;;;;;;;1.63;1.40;;;;;;;33.30;19.38;94570.00;5093908;28;20048;-45
2021/09/01 01:02:05;;;;;;;2.92;1.50;;;;;;;33.48;19.29;94571.53;5094801;28;20370;-45
2021/09/01 01:04:33;;;;;;;1.65;1.20;;;;;;;33.52;19.08;94567.53;5092847;28;20052;-45
2021/09/01 01:07:03;;;;;;;2.75;1.60;;;;;;;33.44;19.47;94574.34;5088031;28;20370;-45
2021/09/01 01:09:31;;;;;;;1.90;1.30;;;;;;;33.40;19.31;94570.97;5093554;28;20054;-45
2021/09/01 01:12:04;;;;;;;2.50;1.50;;;;;;;33.38;19.61;94568.69;5094824;28;20047;-46
2021/09/01 01:14:48;;;;;;;1.90;1.55;;;;;;;33.51;19.77;94567.97;5093548;28;20047;-45
2021/09/01 01:17:18;;;;;;;2.25;1.50;;;;;;;33.52;19.47;94564.81;5074838;28;20055;-45
2021/09/01 01:19:50;;;;;;;1.52;1.27;;;;;;;33.35;19.30;94572.25;5080003;28;20827;-45
2021/09/01 01:22:19;;;;;;;1.50;1.33;;;;;;;33.46;19.19;94574.66;5074154;28;20055;-44
2021/09/01 01:24:54;;;;;;;2.05;1.38;;;;;;;33.36;19.16;94573.00;5088698;28;20048;-45
2021/09/01 01:27:24;;;;;;;2.33;1.13;;;;;;;33.39;19.17;94572.16;5090240;28;20048;-44
2021/09/01 01:29:51;;;;;;;1.50;1.40;;;;;;;33.54;19.26;94570.56;5093581;28;20058;-45
2021/09/01 01:32:19;;;;;;;2.25;1.60;;;;;;;33.49;19.44;94573.81;5093986;28;20044;-45
2021/09/01 01:34:46;;;;;;;2.10;1.40;;;;;;;33.49;19.12;94562.97;5091488;28;20335;-45
2021/09/01 01:37:13;;;;;;;4.00;2.00;;;;;;;33.41;19.62;94567.81;5088607;28;20051;-45
2021/09/01 01:39:40;;;;;;;2.45;1.80;;;;;;;33.43;19.47;94556.56;5091135;28;20447;-45
2021/09/01 01:42:07;;;;;;;3.70;1.65;;;;;;;33.47;19.64;94559.94;5084466;28;20044;-46
2021/09/01 01:44:34;;;;;;;2.30;1.58;;;;;;;33.12;19.99;94556.19;5094050;28;20051;-44
2021/09/01 01:47:03;;;;;;;2.95;1.70;;;;;;;33.33;19.65;94560.31;5079341;28;20074;-44
2021/09/01 01:49:30;;;;;;;2.20;1.60;;;;;;;33.41;19.85;94564.34;5073417;28;20066;-46
2021/09/01 01:51:58;;;;;;;2.60;1.60;;;;;;;33.27;19.67;94551.16;5074350;28;20055;-46
2021/09/01 01:54:25;;;;;;;1.80;1.50;;;;;;;33.41;19.21;94556.22;5073536;28;20052;-45
2021/09/01 01:56:52;;;;;;;2.03;1.48;;;;;;;33.56;19.08;94551.94;5072337;28;20052;-45
2021/09/01 01:59:19;;;;;;;1.50;1.33;;;;;;;33.70;19.20;94548.84;5090843;28;20418;-45
2021/09/01 02:01:46;;;;;;;2.03;1.50;;;;;;;33.58;19.55;94552.28;5071515;28;20055;-46
2021/09/01 02:04:13;;;;;;;3.58;1.42;;;;;;;33.68;19.40;94553.91;5070848;28;20455;-45
2021/09/01 02:06:40;;;;;;;1.80;1.20;;;;;;;33.38;20.02;94547.00;5083492;28;20051;-49
2021/09/01 02:09:07;;;;;;;3.47;1.63;;;;;;;33.56;19.41;94546.50;5093990;28;20446;-46
2021/09/01 02:11:35;;;;;;;2.85;1.42;;;;;;;33.55;19.36;94552.34;5094986;28;20051;-46
2021/09/01 02:14:02;;;;;;;2.40;1.40;;;;;;;33.40;19.80;94547.34;5094825;28;20048;-46
2021/09/01 02:16:29;;;;;;;1.60;1.45;;;;;;;33.42;19.59;94552.34;5093697;28;20052;-46
2021/09/01 02:18:56;;;;;;;2.00;1.40;;;;;;;33.34;19.39;94557.19;5094193;28;20461;-50
2021/09/01 02:21:23;;;;;;;2.58;1.40;;;;;;;33.66;19.88;94545.47;5093993;28;20055;-47
2021/09/01 02:23:50;;;;;;;3.30;1.50;;;;;;;33.50;19.84;94544.75;5093900;28;20044;-48
2021/09/01 02:26:17;;;;;;;3.42;1.60;;;;;;;33.40;20.21;94549.28;5094493;28;20051;-48
2021/09/01 02:28:44;;;;;;;2.53;1.63;;;;;;;33.45;19.84;94546.06;5093705;28;20452;-47
2021/09/01 02:31:11;;;;;;;3.40;1.48;;;;;;;33.37;20.11;94555.56;5094755;28;20040;-45
2021/09/01 02:33:39;;;;;;;3.00;1.73;;;;;;;33.40;19.92;94552.00;5093251;28;20059;-47
2021/09/01 02:36:06;;;;;;;2.05;1.27;;;;;;;33.31;19.90;94549.09;5094367;28;20382;-48
2021/09/01 02:38:33;;;;;;;1.67;1.58;;;;;;;33.58;19.47;94549.56;5093443;28;20054;-45
2021/09/01 02:41:01;;;;;;;3.35;1.75;;;;;;;33.32;19.84;94547.97;5094450;28;20050;-47
2021/09/01 02:43:28;;;;;;;2.08;1.85;;;;;;;33.33;20.08;94546.78;5094053;28;20048;-46
2021/09/01 02:45:55;;;;;;;3.58;1.55;;;;;;;32.91;20.25;94557.50;5079722;28;20048;-46
2021/09/01 02:48:22;;;;;;;2.58;1.50;;;;;;;31.82;21.70;94550.66;5082899;28;20082;-46
2021/09/01 02:50:49;;;;;;;2.30;1.40;;;;;;;32.65;20.91;94553.09;5093817;28;20063;-45
2021/09/01 02:53:16;;;;;;;1.45;1.30;;;;;;;32.84;20.21;94556.91;5096577;28;20051;-45
2021/09/01 02:55:43;;;;;;;1.52;1.40;;;;;;;32.97;20.61;94555.78;5078516;28;20051;-46
2021/09/01 02:58:10;;;;;;;1.80;1.60;;;;;;;33.01;20.31;94552.97;5084435;28;20481;-47
2021/09/01 03:00:38;;;;;;;2.00;1.60;;;;;;;33.21;20.18;94556.34;5077152;28;20056;-46
2021/09/01 03:03:05;;;;;;;2.17;1.50;;;;;;;33.21;19.80;94563.69;5077921;28;20040;-46
2021/09/01 03:05:32;;;;;;;1.90;1.70;;;;;;;33.18;20.28;94553.72;5078059;28;20055;-48
2021/09/01 03:07:59;;;;;;;1.98;1.40;;;;;;;33.04;20.45;94562.97;5095875;28;20051;-45
2021/09/01 03:10:26;;;;;;;2.53;1.67;;;;;;;33.27;20.20;94567.41;5097681;28;20443;-48
2021/09/01 03:12:53;;;;;;;4.07;1.75;;;;;;;33.07;20.56;94565.59;5097210;28;20930;-48
2021/09/01 03:15:20;;;;;;;4.95;1.85;;;;;;;33.27;20.01;94557.31;5097365;28;20485;-49
2021/09/01 03:17:47;;;;;;;4.00;1.90;;;;;;;33.30;19.69;94561.13;5079782;28;20048;-45
2021/09/01 03:20:14;;;;;;;4.50;1.95;;;;;;;33.30;20.20;94571.97;5089776;28;20055;-45
2021/09/01 03:22:41;;;;;;;2.38;1.70;;;;;;;33.22;20.33;94570.63;5097594;28;20050;-45
2021/09/01 03:25:09;;;;;;;3.72;1.50;;;;;;;33.46;19.82;94569.25;5097927;28;20055;-45
2021/09/01 03:27:36;;;;;;;2.67;1.60;;;;;;;33.22;20.01;94565.97;5096616;28;20051;-45
2021/09/01 03:30:04;;;;;;;3.80;1.83;;;;;;;33.11;20.27;94566.28;5096399;28;20040;-45
2021/09/01 03:32:31;;;;;;;3.00;1.85;;;;;;;33.30;20.11;94571.97;5097857;28;20431;-45
2021/09/01 03:34:58;;;;;;;1.83;1.48;;;;;;;33.30;20.09;94578.13;5097388;28;20044;-46
2021/09/01 03:37:25;;;;;;;2.10;1.73;;;;;;;33.15;20.29;94581.66;5082954;28;20047;-45
2021/09/01 03:39:52;;;;;;;3.38;1.60;;;;;;;33.01;20.45;94582.78;5076944;28;20053;-45
2021/09/01 03:42:20;;;;;;;4.22;1.65;;;;;;;32.95;20.15;94585.22;5075645;28;20048;-47
2021/09/01 03:44:48;;;;;;;1.85;1.58;;;;;;;33.01;20.12;94591.66;5058867;28;20052;-45
2021/09/01 03:47:15;;;;;;;3.40;1.70;;;;;;;32.98;20.33;94578.22;5087801;28;20044;-45
2021/09/01 03:49:42;;;;;;;2.72;1.70;;;;;;;32.90;20.88;94598.53;5097083;28;20362;-46
2021/09/01 03:52:10;;;;;;;4.00;1.70;;;;;;;33.04;20.64;94588.09;5097118;28;20044;-44
2021/09/01 03:54:37;;;;;;;2.20;1.48;;;;;;;32.95;20.63;94589.88;5097254;28;20044;-45
2021/09/01 03:57:04;;;;;;;2.35;1.60;;;;;;;32.95;20.45;94592.59;5094018;28;20055;-46
2021/09/01 03:59:31;;;;;;;3.22;1.88;;;;;;;32.97;20.69;94593.69;5077081;28;20355;-45
2021/09/01 04:01:58;;;;;;;1.98;1.50;;;;;;;33.05;20.30;94589.63;5076366;28;20055;-49
2021/09/01 04:04:25;;;;;;;2.88;1.70;;;;;;;32.88;20.47;94585.41;5077043;28;20387;-46
2021/09/01 04:06:53;;;;;;;2.90;1.95;;;;;;;32.94;20.32;94589.13;5075880;28;20060;-50
2021/09/01 04:09:20;;;;;;;4.18;1.90;;;;;;;32.92;20.37;94593.44;5073078;28;20048;-55
2021/09/01 04:11:47;;;;;;;3.05;1.90;;;;;;;32.88;20.69;94590.84;5075270;28;20510;-49
2021/09/01 04:14:14;;;;;;;3.10;1.58;;;;;;;32.87;20.66;94594.72;5074876;28;20466;-51
2021/09/01 04:16:41;;;;;;;2.88;1.88;;;;;;;32.80;20.86;94587.53;5082769;28;20047;-45
2021/09/01 04:19:08;;;;;;;2.10;1.70;;;;;;;32.96;20.56;94599.53;5095398;28;20044;-45
2021/09/01 04:21:36;;;;;;;3.03;1.90;;;;;;;33.13;20.14;94590.22;5097114;28;20058;-52
2021/09/01 04:24:03;;;;;;;3.88;1.60;;;;;;;33.29;20.10;94597.53;5089490;28;20048;-49
2021/09/01 04:26:30;;;;;;;2.38;1.75;;;;;;;33.23;20.11;94600.00;5080925;28;20437;-56
2021/09/01 04:28:57;;;;;;;3.25;1.95;;;;;;;33.50;20.11;94597.00;5085321;28;20735;-53
2021/09/01 04:31:24;;;;;;;2.38;1.80;;;;;;;33.54;19.95;94596.91;5083383;28;20079;-49
2021/09/01 04:33:51;;;;;;;3.78;1.90;;;;;;;33.57;19.84;94596.84;5076149;28;20044;-49
2021/09/01 04:36:19;;;;;;;2.70;1.50;;;;;;;33.62;19.84;94599.00;5074649;28;20070;-47
2021/09/01 04:38:46;;;;;;;2.88;1.58;;;;;;;33.42;20.15;94595.69;5089945;28;20047;-50
2021/09/01 04:41:13;;;;;;;4.25;1.70;;;;;;;33.76;20.05;94602.50;5088835;28;20049;-55
2021/09/01 04:43:40;;;;;;;2.67;2.00;;;;;;;33.77;20.31;94598.59;5074652;28;20052;-52
2021/09/01 04:46:07;;;;;;;3.17;1.70;;;;;;;33.85;20.10;94605.41;5075942;28;20490;-50
2021/09/01 04:48:34;;;;;;;3.05;1.58;;;;;;;33.78;20.30;94610.97;5073755;28;20044;-51
2021/09/01 04:51:01;;;;;;;3.63;1.63;;;;;;;33.37;20.50;94609.75;5073373;28;20056;-56
2021/09/01 04:53:28;;;;;;;5.50;1.60;;;;;;;33.53;20.75;94608.94;5094841;28;20048;-53
2021/09/01 04:55:55;;;;;;;3.25;1.50;;;;;;;33.15;21.25;94608.75;5092309;28;20040;-52
2021/09/01 04:58:22;;;;;;;2.30;1.42;;;;;;;32.87;21.71;94613.66;5077573;28;20045;-53
2021/09/01 05:00:49;;;;;;;2.25;1.60;;;;;;;32.91;21.59;94611.63;5075885;28;20052;-53
2021/09/01 05:03:16;;;;;;;2.10;1.60;;;;;;;32.63;22.00;94612.28;5075057;28;20048;-53
2021/09/01 05:05:44;;;;;;;2.03;1.60;;;;;;;32.72;21.48;94609.75;5075810;28;20048;-59
2021/09/01 05:08:11;;;;;;;2.70;1.70;;;;;;;32.92;21.21;94607.75;5074327;28;20332;-55
2021/09/01 05:10:38;;;;;;;2.10;1.52;;;;;;;33.03;21.34;94623.72;5075724;28;20055;-52
2021/09/01 05:13:05;;;;;;;2.80;1.55;;;;;;;32.98;21.29;94619.56;5075695;28;20428;-55
2021/09/01 05:15:32;;;;;;;7.55;2.05;;;;;;;33.20;21.14;94616.34;5075510;28;20458;-51
2021/09/01 05:17:59;;;;;;;3.45;1.83;;;;;;;33.28;20.70;94628.50;5087636;28;20048;-57
2021/09/01 05:20:26;;;;;;;3.30;1.70;;;;;;;33.46;21.01;94618.03;5093982;28;20055;-56
2021/09/01 05:22:59;;;;;;;3.20;1.60;;;;;;;33.69;20.38;94620.50;5094835;28;20052;-55
2021/09/01 05:25:30;;;;;;;4.82;1.70;;;;;;;33.56;20.68;94621.63;5095583;28;20481;-55
2021/09/01 05:27:57;;;;;;;;;;;;;;;33.76;20.04;94629.63;5094892;28;20056;-53
2021/09/01 05:30:24;;;;;;;1.65;1.33;;;;;;;33.81;19.94;94621.72;5076768;28;19912;-57
2021/09/01 05:32:54;;;;;;;3.38;1.35;;;;;;;33.90;19.93;94626.56;5056709;28;20037;-54
2021/09/01 05:35:21;;;;;;;5.20;1.48;;;;;;;34.07;19.99;94627.97;5057166;28;20044;-52
2021/09/01 05:37:48;;;;;;;1.95;1.40;;;;;;;34.51;19.46;94625.56;5084841;28;20051;-55
2021/09/01 05:40:16;;;;;;;2.30;1.33;;;;;;;34.33;19.30;94626.81;5062685;28;20044;-55
2021/09/01 05:42:43;;;;;;;3.13;1.60;;;;;;;34.77;18.97;94627.09;5075013;28;20052;-59
2021/09/01 05:45:10;;;;;;;2.75;1.50;;;;;;;34.67;19.11;94625.47;5075408;28;20336;-55
2021/09/01 05:47:37;;;;;;;2.55;1.30;;;;;;;35.39;18.76;94630.16;5074943;28;20053;-56
2021/09/01 05:50:05;;;;;;;1.65;1.55;;;;;;;35.20;18.61;94628.47;5085865;28;20060;-58
2021/09/01 05:52:32;;;;;;;3.25;1.58;;;;;;;35.24;18.44;94621.72;5095439;28;20054;-56
2021/09/01 05:55:08;;;;;;;2.17;1.20;;;;;;;35.63;18.32;94627.78;5081587;28;20049;-54
2021/09/01 05:57:37;;;;;;;1.73;1.23;;;;;;;35.08;18.37;94618.38;5086511;28;20055;-58
2021/09/01 06:00:13;;;;;;;2.75;1.70;;;;;;;35.79;17.79;94629.56;5078755;28;20351;-54
2021/09/01 06:03:21;;;;;;;1.92;1.00;;;;;;;35.62;18.00;94630.94;5073746;28;20336;-54
2021/09/01 06:05:54;;;;;;;1.20;1.08;;;;;;;35.77;18.00;94631.97;5035721;28;20451;-59
2021/09/01 06:08:24;;;;;;;2.88;1.38;;;;;;;36.03;17.68;94627.94;5087969;28;20054;-60
2021/09/01 06:10:56;;;;;;;3.70;1.52;;;;;;;36.07;17.28;94628.56;5074864;28;20047;-60
2021/09/01 06:13:23;;;;;;;1.42;1.30;;;;;;;36.22;17.43;94625.34;5074725;28;20040;-57
2021/09/01 06:15:50;;;;;;;7.07;1.50;;;;;;;36.33;17.37;94628.44;5074160;28;20059;-56
2021/09/01 06:18:17;;;;;;;2.75;1.20;;;;;;;36.16;17.09;94619.69;5087158;28;20059;-55
2021/09/01 06:20:45;;;;;;;1.67;1.30;;;;;;;36.11;17.03;94626.47;5092960;28;20052;-54
2021/09/01 06:23:12;;;;;;;7.90;1.33;;;;;;;36.71;16.59;94631.63;5073829;28;20055;-58
2021/09/01 06:25:39;;;;;;;4.60;1.30;;;;;;;36.04;17.49;94634.16;5081175;28;20059;-55
2021/09/01 06:28:07;;;;;;;2.28;1.10;;;;;;;36.38;16.74;94625.13;5084842;28;20051;-54
2021/09/01 06:30:35;;;;;;;2.53;1.27;;;;;;;36.09;17.42;94637.03;5085176;28;20367;-54
2021/09/01 06:33:02;;;;;;;1.90;1.20;;;;;;;36.30;16.52;94634.75;5081105;28;20040;-53
2021/09/01 06:35:30;;;;;;;1.50;1.20;;;;;;;36.04;16.95;94624.03;5094761;28;20059;-56
2021/09/01 06:37:57;;;;;;;3.08;1.42;;;;;;;36.25;16.98;94638.06;5084279;28;20048;-52
2021/09/01 06:40:24;;;;;;;1.52;1.20;;;;;;;36.30;17.05;94635.53;5074438;28;20052;-55
2021/09/01 06:42:51;;;;;;;1.77;1.40;;;;;;;35.78;17.12;94644.38;5074132;28;20485;-52
2021/09/01 06:45:18;;;;;;;3.08;1.52;;;;;;;35.86;17.58;94640.22;5073868;28;20048;-57
2021/09/01 06:47:50;;;;;;;2.22;1.52;;;;;;;36.37;16.98;94634.50;5082224;28;20052;-53
2021/09/01 06:50:19;;;;;;;2.97;1.40;;;;;;;36.47;17.54;94644.25;5094194;28;20048;-56
2021/09/01 06:52:47;;;;;;;4.72;1.88;;;;;;;36.29;16.82;94633.22;5087966;28;20036;-57
2021/09/01 06:55:14;;;;;;;3.97;1.33;;;;;;;36.40;16.67;94650.69;5074345;28;20048;-57
2021/09/01 06:57:43;;;;;;;1.98;1.38;;;;;;;36.25;16.89;94636.09;5080835;28;20067;-54
2021/09/01 07:00:13;;;;;;;1.98;1.27;;;;;;;36.21;16.75;94653.75;5093386;28;20051;-52
2021/09/01 07:02:41;;;;;;;1.35;1.15;;;;;;;35.66;17.37;94650.63;5094109;28;20451;-52
2021/09/01 07:05:11;;;;;;;2.08;1.25;;;;;;;35.63;17.68;94657.69;5094480;28;20051;-56
2021/09/01 07:07:38;;;;;;;1.42;1.13;;;;;;;35.95;16.91;94653.91;5087666;28;20348;-55
2021/09/01 07:10:06;;;;;;;3.72;1.40;;;;;;;36.58;16.76;94647.31;5074211;28;20052;-54
2021/09/01 07:12:33;;;;;;;1.65;1.20;;;;;;;36.52;17.20;94649.09;5073170;28;20040;-54
2021/09/01 07:15:00;;;;;;;4.07;1.38;;;;;;;36.66;16.71;94651.25;5073350;28;20044;-54
2021/09/01 07:17:27;;;;;;;1.83;1.13;;;;;;;37.47;15.80;94656.66;5078068;28;20055;-55
2021/09/01 07:19:54;;;;;;;1.65;1.20;;;;;;;37.32;16.15;94648.31;5093292;28;20063;-53
2021/09/01 07:22:21;;;;;;;1.60;1.00;;;;;;;37.70;16.46;94645.16;5093258;28;20051;-53
2021/09/01 07:24:48;;;;;;;1.40;0.98;;;;;;;37.72;15.89;94648.19;5057260;28;20044;-58
2021/09/01 07:27:16;;;;;;;2.40;1.13;;;;;;;38.12;15.47;94645.28;5079573;28;20067;-56
2021/09/01 07:29:43;;;;;;;3.88;1.10;;;;;;;38.30;15.50;94643.78;5097881;28;20048;-54
2021/09/01 07:32:10;;;;;;;2.38;1.00;;;;;;;38.36;15.61;94655.56;5097799;28;20078;-56
2021/09/01 07:34:37;;;;;;;1.48;1.17;;;;;;;38.71;15.18;94647.75;5096482;28;20450;-53
2021/09/01 07:37:04;;;;;;;1.30;0.88;;;;;;;37.78;16.07;94649.13;5096466;28;20051;-56
2021/09/01 07:39:31;;;;;;;2.47;1.20;;;;;;;38.43;15.26;94660.72;5097770;28;20067;-56
2021/09/01 07:41:58;;;;;;;5.68;1.10;;;;;;;38.61;15.19;94651.69;5097909;28;20052;-54
2021/09/01 07:44:25;;;;;;;4.53;1.30;;;;;;;38.20;15.61;94656.66;5097504;28;20051;-53
2021/09/01 07:46:52;;;;;;;11.15;6.63;;;;;;;38.00;15.69;94656.38;5097581;28;20052;-58
2021/09/01 07:49:19;;;;;;;4.53;2.60;;;;;;;38.85;15.07;94655.28;5081739;28;20043;-56
2021/09/01 07:51:47;;;;;;;2.40;1.52;;;;;;;38.60;15.22;94661.13;5096728;28;20051;-54
2021/09/01 07:54:15;;;;;;;3.00;1.73;;;;;;;38.30;15.76;94647.25;5081198;28;20044;-55
2021/09/01 07:56:42;;;;;;;1.80;1.40;;;;;;;37.87;16.00;94657.31;5075973;28;20060;-57
2021/09/01 07:59:09;;;;;;;1.60;1.10;;;;;;;37.39;16.65;94650.00;5078100;28;20040;-57
2021/09/01 08:01:36;;;;;;;1.52;0.90;;;;;;;37.55;16.35;94655.16;5077010;28;20051;-57
2021/09/01 08:04:03;;;;;;;3.00;1.10;;;;;;;37.54;16.16;94657.13;5076757;28;20052;-55
2021/09/01 08:06:30;;;;;;;1.70;1.15;;;;;;;37.14;16.51;94651.75;5076539;28;20056;-56
2021/09/01 08:08:57;;;;;;;1.45;1.10;;;;;;;37.24;15.94;94655.25;5071343;28;20052;-60
2021/09/01 08:11:24;;;;;;;4.32;1.20;;;;;;;36.80;17.04;94649.22;5076837;28;20056;-56
2021/09/01 08:13:52;;;;;;;2.28;1.08;;;;;;;37.38;16.76;94645.75;5088295;28;20036;-57
2021/09/01 08:16:19;;;;;;;2.28;0.90;;;;;;;37.29;16.52;94647.25;5096996;28;20051;-58
2021/09/01 08:18:46;;;;;;;1.30;1.00;;;;;;;37.34;16.15;94641.22;5096248;28;20044;-59
2021/09/01 08:21:13;;;;;;;1.33;1.00;;;;;;;37.26;16.40;94640.00;5096888;28;20048;-60
2021/09/01 08:23:40;;;;;;;3.25;0.90;;;;;;;37.22;15.64;94633.91;5086899;28;20048;-56
2021/09/01 08:26:07;;;;;;;2.10;1.10;;;;;;;37.19;16.04;94642.22;5076557;28;20052;-60
2021/09/01 08:28:34;;;;;;;3.47;1.08;;;;;;;36.75;16.28;94647.84;5091496;28;20070;-61
2021/09/01 08:31:01;;;;;;;1.63;1.02;;;;;;;36.83;16.41;94642.88;5095514;28;20052;-56
2021/09/01 08:33:28;;;;;;;2.08;0.90;;;;;;;37.40;16.11;94640.59;5096458;28;20044;-53
2021/09/01 08:35:55;;;;;;;5.00;4.50;;;;;;;36.71;16.47;94642.53;5096542;28;20052;-52
2021/09/01 08:38:23;;;;;;;3.45;1.80;;;;;;;37.49;15.55;94646.06;5085255;28;20048;-53
2021/09/01 08:40:50;;;;;;;2.92;1.23;;;;;;;36.97;16.17;94632.19;5076321;28;20052;-53
2021/09/01 08:43:19;;;;;;;1.83;1.25;;;;;;;37.10;16.06;94634.78;5075876;28;20045;-53
2021/09/01 08:45:47;;;;;;;1.90;1.50;;;;;;;37.78;15.68;94637.47;5076254;28;20439;-54
2021/09/01 08:48:15;;;;;;;1.88;1.10;;;;;;;37.43;16.28;94631.50;5084022;28;20040;-56
2021/09/01 08:50:42;;;;;;;2.92;1.42;;;;;;;37.88;16.11;94617.91;5096021;28;20059;-53
2021/09/01 08:53:11;;;;;;;1.92;1.30;;;;;;;37.71;16.17;94619.41;5090552;28;20056;-53
2021/09/01 08:55:38;;;;;;;1.60;1.20;;;;;;;37.77;15.67;94608.69;5076019;28;20060;-54
2021/09/01 08:58:05;;;;;;;1.45;1.13;;;;;;;37.50;16.20;94618.34;5086964;28;20052;-53
2021/09/01 09:00:32;;;;;;;1.98;1.40;;;;;;;36.55;16.67;94615.53;5095291;28;20055;-52
2021/09/01 09:03:00;;;;;;;2.55;1.20;;;;;;;36.90;16.66;94615.34;5095770;28;20370;-54
2021/09/01 09:05:36;;;;;;;2.10;1.20;;;;;;;37.69;16.17;94608.19;5096097;28;20044;-56
2021/09/01 09:08:04;;;;;;;3.15;1.20;;;;;;;37.82;16.22;94610.78;5077657;28;20043;-57
2021/09/01 09:10:39;;;;;;;1.58;1.20;;;;;;;37.18;16.63;94603.28;5095352;28;20063;-53
2021/09/01 09:13:07;;;;;;;1.95;1.23;;;;;;;36.59;17.39;94602.53;5094914;28;20047;-54
2021/09/01 09:15:35;;;;;;;4.18;1.38;;;;;;;36.40;17.76;94600.94;5095500;28;20051;-53
2021/09/01 09:18:03;;;;;;;4.47;1.33;;;;;;;36.42;17.71;94612.13;5080868;28;20052;-53
2021/09/01 09:20:33;;;;;;;3.10;1.23;;;;;;;36.84;17.21;94606.28;5077007;28;20063;-52
2021/09/01 09:23:05;;;;;;;1.42;1.25;;;;;;;36.26;17.69;94596.03;5093279;28;20044;-55
2021/09/01 09:25:33;;;;;;;2.65;1.48;;;;;;;36.03;17.56;94606.19;5074468;28;20052;-51
2021/09/01 09:28:05;;;;;;;3.47;1.17;;;;;;;35.83;17.79;94600.31;5083981;28;20044;-54
2021/09/01 09:30:39;;;;;;;3.30;2.00;;;;;;;35.61;18.07;94594.84;5095505;28;20051;-52
2021/09/01 09:33:07;;;;;;;2.85;1.38;;;;;;;35.87;17.57;94598.22;5095255;28;20040;-53
2021/09/01 09:35:54;;;;;;;4.15;1.35;;;;;;;36.00;17.65;94601.63;5095474;28;20055;-54
2021/09/01 09:38:43;;;;;;;1.80;1.13;;;;;;;35.99;17.79;94594.69;5066681;28;20063;-53
2021/09/01 09:41:21;;;;;;;1.60;1.13;;;;;;;35.68;17.62;94602.00;5074736;28;20063;-54
2021/09/01 09:43:50;;;;;;;1.50;1.20;;;;;;;36.42;17.70;94598.53;5082988;28;20126;-55
2021/09/01 09:46:17;;;;;;;2.92;1.40;;;;;;;36.43;16.73;94605.50;5080964;28;20048;-55
2021/09/01 09:48:46;;;;;;;4.38;1.30;;;;;;;35.84;17.65;94605.31;5074790;28;20052;-53
2021/09/01 09:51:18;;;;;;;1.75;1.20;;;;;;;35.53;17.91;94610.66;5073543;28;20052;-53
2021/09/01 09:53:50;;;;;;;2.70;1.30;;;;;;;35.51;17.79;94604.91;5075027;28;20071;-56
2021/09/01 09:56:20;;;;;;;3.78;1.35;;;;;;;35.67;17.97;94611.38;5074402;28;20044;-59
2021/09/01 09:58:51;;;;;;;2.22;1.15;;;;;;;35.88;17.70;94604.41;5077284;28;20053;-60
2021/09/01 10:01:20;;;;;;;3.33;1.10;;;;;;;35.91;17.62;94612.44;5074179;28;20336;-54
2021/09/01 10:03:48;;;;;;;2.35;1.33;;;;;;;36.33;17.36;94601.22;5073574;28;20367;-56
2021/09/01 10:06:17;;;;;;;1.65;1.00;;;;;;;36.25;16.80;94594.50;5074433;28;20052;-57
2021/09/01 10:08:49;;;;;;;4.07;1.30;;;;;;;36.12;16.97;94595.34;5074974;28;20051;-55
2021/09/01 10:11:18;;;;;;;3.83;1.40;;;;;;;35.89;17.38;94609.41;5075038;28;20387;-59
2021/09/01 10:13:46;;;;;;;10.60;8.90;;;;;;;35.69;17.63;94607.00;5074038;28;20037;-58
2021/09/01 10:16:14;;;;;;;3.20;2.85;;;;;;;35.45;17.82;94601.22;5074365;28;20119;-55
2021/09/01 10:18:42;;;;;;;2.63;2.13;;;;;;;35.45;17.93;94600.47;5074492;28;20047;-53
2021/09/01 10:21:10;;;;;;;4.57;1.80;;;;;;;35.97;17.61;94604.50;5057148;28;20062;-55
2021/09/01 10:23:45;;;;;;;2.38;1.80;;;;;;;36.14;17.16;94590.22;5074212;28;20052;-56
2021/09/01 10:26:59;;;;;;;2.30;1.40;;;;;;;36.22;17.05;94600.84;5074406;28;20063;-58
2021/09/01 10:29:49;;;;;;;3.60;1.50;;;;;;;35.95;17.62;94599.50;4997099;28;20050;-55
2021/09/01 10:32:25;;;;;;;3.55;1.60;;;;;;;35.59;17.47;94607.38;5074389;28;20332;-60
2021/09/01 10:35:15;;;;;;;2.72;1.52;;;;;;;35.66;17.87;94604.41;5074210;28;20052;-53
2021/09/01 10:37:53;;;;;;;2.33;1.20;;;;;;;35.88;17.42;94605.19;5062717;28;20056;-57
2021/09/01 10:40:26;;;;;;;1.92;1.40;;;;;;;35.66;17.24;94610.63;5074081;28;20291;-59
2021/09/01 10:43:00;;;;;;;3.67;1.15;;;;;;;36.00;17.32;94612.53;5073522;28;20059;-59
2021/09/01 10:45:33;;;;;;;5.18;1.70;;;;;;;36.02;16.84;94603.91;5073644;28;20045;-58
2021/09/01 10:48:09;;;;;;;2.40;1.20;;;;;;;36.01;16.62;94607.84;5074091;28;20040;-61
2021/09/01 10:50:45;;;;;;;1.50;1.20;;;;;;;35.98;16.78;94604.03;5088985;28;20470;-54
2021/09/01 10:53:25;;;;;;;2.25;1.13;;;;;;;35.98;16.79;94612.22;5094538;28;20366;-55
2021/09/01 10:56:05;;;;;;;1.60;1.10;;;;;;;36.00;16.82;94606.31;5076845;28;20055;-53
2021/09/01 10:58:42;;;;;;;1.27;1.00;;;;;;;36.42;15.54;94615.63;5079298;28;20057;-54
2021/09/01 11:01:12;;;;;;;2.53;1.00;;;;;;;36.54;15.49;94622.19;5091463;28;20044;-53
2021/09/01 11:03:50;;;;;;;4.72;1.00;;;;;;;36.30;15.90;94610.25;5098286;28;20048;-54
2021/09/01 11:06:24;;;;;;;3.50;1.20;;;;;;;36.17;16.42;94615.75;5098217;28;20044;-53
2021/09/01 11:09:13;;;;;;;1.30;1.00;;;;;;;36.27;15.67;94624.75;5097908;28;20044;-52
2021/09/01 11:11:44;;;;;;;1.35;0.90;;;;;;;36.14;15.99;94616.66;5077647;28;20382;-55
2021/09/01 11:14:14;;;;;;;1.40;1.10;;;;;;;36.89;15.65;94613.84;5076726;28;20041;-56
2021/09/01 11:16:41;;;;;;;2.38;1.13;;;;;;;36.60;15.92;94623.09;5060201;28;20040;-53
2021/09/01 11:19:10;;;;;;;4.97;4.32;;;;;;;36.39;16.13;94621.19;5080117;28;20044;-58
2021/09/01 11:21:45;;;;;;;4.43;2.53;;;;;;;36.29;15.99;94611.47;5097941;28;20063;-55
2021/09/01 11:24:15;;;;;;;1.98;1.70;;;;;;;36.50;15.65;94621.56;5097832;28;20368;-54
2021/09/01 11:26:42;;;;;;;4.22;1.55;;;;;;;36.20;15.72;94619.59;5097683;28;20048;-53
2021/09/01 11:29:11;;;;;;;1.88;1.50;;;;;;;35.95;16.00;94628.66;5090528;28;20044;-54
2021/09/01 11:31:43;;;;;;;2.45;1.60;;;;;;;35.64;16.72;94617.66;5098114;28;20043;-57
2021/09/01 11:34:12;;;;;;;3.13;1.30;;;;;;;36.12;16.18;94614.38;5077514;28;20683;-55
2021/09/01 11:36:43;;;;;;;3.15;1.48;;;;;;;36.07;16.39;94612.25;5077475;28;20055;-57
2021/09/01 11:39:11;;;;;;;4.32;1.65;;;;;;;36.15;15.72;94623.63;5076532;28;20048;-58
2021/09/01 11:41:39;;;;;;;2.67;2.00;;;;;;;36.22;15.73;94622.63;5097675;28;20056;-55